Time;durP1;ratioP1;P1;durP2;ratioP2;P2;SDS_P1;SDS_P2;PMS_P1;PMS_P2;Temp;Humidity;BMP_temperature;BMP_pressure;BME280_temperature;BME280_humidity;BME280_pressure;Samples;Min_cycle;Max_cycle;Signal;HPM_P1;HPM_P2
2023/05/04 00:00:20;;;;;;;8.65;5.18;;;3.00;99.90;;;3.39;100.00;101744.38;5088923;28;20032;-73
2023/05/04 00:02:46;;;;;;;9.35;4.88;;;2.90;99.90;;;3.31;100.00;101753.19;5087678;28;20451;-73
2023/05/04 00:05:12;;;;;;;8.85;4.60;;;2.90;99.90;;;3.17;100.00;101741.84;5088223;28;20035;-73
2023/05/04 00:07:38;;;;;;;15.43;5.13;;;2.80;99.90;;;3.18;100.00;101753.44;5088624;28;20044;-74
2023/05/04 00:10:04;;;;;;;9.05;5.00;;;2.70;99.90;;;3.10;100.00;101756.88;5089395;28;20092;-74
2023/05/04 00:12:30;;;;;;;9.25;5.07;;;2.70;99.90;;;3.07;100.00;101738.28;5088534;28;20043;-74
2023/05/04 00:14:56;;;;;;;8.85;4.95;;;2.70;99.90;;;3.08;100.00;101750.78;5088210;28;20131;-74
2023/05/04 00:17:21;;;;;;;8.73;5.15;;;2.70;99.90;;;3.17;100.00;101749.06;5082557;28;20361;-73
2023/05/04 00:19:48;;;;;;;10.38;5.05;;;2.70;99.90;;;3.17;100.00;101741.84;5088593;28;20043;-73
2023/05/04 00:22:13;;;;;;;11.63;5.68;;;2.70;99.90;;;3.10;100.00;101735.31;5070990;28;20039;-73
2023/05/04 00:24:39;;;;;;;13.05;5.90;;;2.70;99.90;;;3.20;100.00;101746.09;5088320;28;20044;-73
2023/05/04 00:27:05;;;;;;;10.90;5.65;;;2.80;99.90;;;3.33;100.00;101731.47;5052185;28;20043;-73
2023/05/04 00:29:31;;;;;;;14.20;5.60;;;2.90;99.90;;;3.38;100.00;101742.69;5069650;28;20048;-73
2023/05/04 00:31:56;;;;;;;12.63;5.70;;;2.90;99.90;;;3.26;100.00;101739.28;5088585;28;20077;-73
2023/05/04 00:34:22;;;;;;;10.77;5.75;;;2.80;99.90;;;3.31;100.00;101748.66;5088566;28;20400;-73
2023/05/04 00:36:48;;;;;;;11.07;5.70;;;2.80;99.90;;;3.42;100.00;101739.56;5089702;28;20032;-73
2023/05/04 00:39:14;;;;;;;13.95;6.20;;;2.90;99.90;;;3.44;100.00;101732.19;5091479;28;20036;-73
2023/05/04 00:41:40;;;;;;;13.98;6.85;;;3.00;99.90;;;3.35;100.00;101710.59;5075219;28;20028;-73
2023/05/04 00:44:06;;;;;;;12.90;7.22;;;3.00;99.90;;;3.38;100.00;101739.97;5090911;28;20514;-73
2023/05/04 00:46:32;;;;;;;12.27;6.10;;;2.90;99.90;;;3.20;100.00;101727.22;5071324;28;20504;-73
2023/05/04 00:48:58;;;;;;;11.55;5.60;;;2.80;99.90;;;3.08;100.00;101731.91;5092336;28;20484;-73
2023/05/04 00:51:25;;;;;;;11.05;5.35;;;2.70;99.90;;;2.99;100.00;101730.91;5088512;28;20032;-73
2023/05/04 00:53:53;;;;;;;;;;;2.60;99.90;;;2.90;100.00;101725.50;5092839;28;20036;-73
2023/05/04 00:56:23;;;;;;;10.70;4.97;;;2.50;99.90;;;2.74;100.00;101729.56;5092207;28;20446;-73
2023/05/04 00:58:53;;;;;;;9.23;5.15;;;2.30;99.90;;;2.63;100.00;101724.31;5091013;28;20032;-73
2023/05/04 01:01:23;;;;;;;9.18;5.53;;;2.30;99.90;;;2.52;100.00;101726.13;5091329;28;20028;-73
2023/05/04 01:03:50;;;;;;;11.15;5.85;;;2.20;99.90;;;2.57;100.00;101720.31;5090847;28;20085;-74
2023/05/04 01:06:40;;;;;;;10.73;5.30;;;2.20;99.90;;;2.53;100.00;101721.56;5092392;28;20043;-73
2023/05/04 01:09:15;;;;;;;9.50;5.55;;;2.20;99.90;;;2.52;100.00;101718.03;5078792;28;20036;-74
2023/05/04 01:11:54;;;;;;;10.73;5.28;;;2.20;99.90;;;2.54;100.00;101725.97;5092058;28;20036;-74
2023/05/04 01:14:21;;;;;;;10.70;5.60;;;2.10;99.90;;;2.51;100.00;101715.47;5086938;28;20110;-74
2023/05/04 01:16:52;;;;;;;10.15;6.30;;;2.10;99.90;;;2.38;100.00;101708.47;5075430;28;20098;-74
2023/05/04 01:19:17;;;;;;;9.32;5.63;;;2.10;99.90;;;2.40;100.00;101720.00;5075898;28;20036;-74
2023/05/04 01:21:43;;;;;;;10.77;5.82;;;2.10;99.90;;;2.42;100.00;101725.22;5090661;28;20043;-74
2023/05/04 01:24:09;;;;;;;15.27;6.43;;;2.10;99.90;;;2.52;100.00;101719.88;5068351;28;20493;-74
2023/05/04 01:26:42;;;;;;;10.35;6.05;;;2.20;99.90;;;2.69;100.00;101716.53;5072430;28;20031;-74
2023/05/04 01:29:13;;;;;;;16.08;7.07;;;2.40;99.90;;;2.79;100.00;101712.97;5058315;28;20476;-73
2023/05/04 01:31:39;;;;;;;13.30;6.05;;;2.50;99.90;;;2.95;100.00;101705.22;5074750;28;20389;-73
2023/05/04 01:34:07;;;;;;;15.35;6.55;;;2.50;99.90;;;2.96;100.00;101706.03;5085240;28;20472;-73
2023/05/04 01:36:34;;;;;;;12.57;6.20;;;2.40;99.90;;;3.00;100.00;101713.72;5089808;28;20040;-73
2023/05/04 01:39:02;;;;;;;12.48;6.85;;;2.40;99.90;;;2.89;100.00;101716.53;5085757;28;20032;-73
2023/05/04 01:41:31;;;;;;;12.68;6.22;;;2.30;99.90;;;2.79;100.00;101710.28;5073573;28;20111;-74
2023/05/04 01:43:57;;;;;;;13.65;6.18;;;2.30;99.90;;;2.67;100.00;101713.13;5091314;28;20279;-74
2023/05/04 01:46:25;;;;;;;12.65;5.88;;;2.20;99.90;;;2.59;100.00;101712.94;5091783;28;20119;-74
2023/05/04 01:48:51;;;;;;;10.68;5.85;;;2.10;99.90;;;2.69;100.00;101716.53;5089296;28;20195;-74
2023/05/04 01:51:16;;;;;;;9.63;5.68;;;2.20;99.90;;;2.68;100.00;101720.22;5073160;28;20063;-74
2023/05/04 01:53:42;;;;;;;13.30;6.72;;;2.10;99.90;;;2.61;100.00;101720.88;5081358;28;20028;-74
2023/05/04 01:56:08;;;;;;;9.35;5.63;;;2.00;99.90;;;2.49;100.00;101717.47;5091349;28;20028;-74
2023/05/04 01:58:34;;;;;;;11.38;6.22;;;1.90;99.90;;;2.37;100.00;101727.47;5063135;28;20040;-74
2023/05/04 02:01:00;;;;;;;12.15;6.35;;;1.80;99.90;;;2.32;100.00;101719.81;5091207;28;20023;-74
2023/05/04 02:03:27;;;;;;;12.13;6.20;;;1.80;99.90;;;2.24;100.00;101704.31;5073944;28;20032;-74
2023/05/04 02:05:53;;;;;;;13.40;6.45;;;1.80;99.90;;;2.26;100.00;101723.03;5090780;28;20089;-74
2023/05/04 02:08:18;;;;;;;12.45;6.53;;;1.80;99.90;;;2.23;100.00;101717.94;5073222;28;20119;-74
2023/05/04 02:10:44;;;;;;;12.50;6.85;;;1.70;99.90;;;2.23;100.00;101723.31;5089995;28;20118;-74
2023/05/04 02:13:10;;;;;;;11.85;7.32;;;1.80;99.90;;;2.25;100.00;101719.47;5067725;28;20044;-74
2023/05/04 02:15:35;;;;;;;14.05;6.47;;;1.80;99.90;;;2.26;100.00;101720.34;5074058;28;20035;-74
2023/05/04 02:18:01;;;;;;;15.93;6.88;;;1.80;99.90;;;2.33;100.00;101724.19;5078749;28;20036;-74
2023/05/04 02:20:27;;;;;;;10.65;6.45;;;1.90;99.90;;;2.47;100.00;101722.13;5090780;28;20031;-74
2023/05/04 02:22:53;;;;;;;12.38;6.05;;;2.00;99.90;;;2.44;100.00;101720.56;5089629;28;20444;-74
2023/05/04 02:25:18;;;;;;;13.10;6.40;;;2.00;99.90;;;2.32;100.00;101721.66;5070436;28;20039;-74
2023/05/04 02:27:44;;;;;;;11.00;6.28;;;1.80;99.90;;;2.35;100.00;101727.59;5090709;28;20093;-73
2023/05/04 02:30:11;;;;;;;12.25;6.68;;;1.80;99.90;;;2.23;100.00;101731.41;5090695;28;20116;-73
2023/05/04 02:32:37;;;;;;;10.98;6.82;;;1.80;99.90;;;2.12;100.00;101724.25;5073238;28;20032;-74
2023/05/04 02:35:02;;;;;;;13.00;6.50;;;1.70;99.90;;;1.98;100.00;101723.63;5090658;28;20085;-74
2023/05/04 02:38:37;;;;;;;11.40;6.25;;;1.60;99.90;;;1.59;100.00;101674.97;5072252;28;20028;-74
2023/05/04 02:41:03;;;;;;;11.82;6.28;;;1.50;99.90;;;1.81;100.00;101719.69;5002072;28;20681;-73
2023/05/04 02:43:29;;;;;;;13.18;6.47;;;1.40;99.90;;;1.70;100.00;101714.41;5009747;28;20054;-73
2023/05/04 02:45:54;;;;;;;11.43;6.45;;;1.40;99.90;;;1.65;100.00;101722.03;5046807;28;20048;-74
2023/05/04 02:48:20;;;;;;;11.50;5.93;;;1.30;99.90;;;1.61;100.00;101725.97;5065084;28;20604;-73
2023/05/04 02:50:46;;;;;;;15.43;6.60;;;1.30;99.90;;;1.50;100.00;101725.03;5077438;28;20031;-73
2023/05/04 02:53:12;;;;;;;11.73;5.70;;;1.20;99.90;;;1.45;100.00;101721.88;5072946;28;20039;-73
2023/05/04 02:55:37;;;;;;;12.35;5.63;;;1.10;99.90;;;1.44;100.00;101718.31;5090592;28;20509;-73
2023/05/04 02:58:03;;;;;;;9.82;5.97;;;1.10;99.90;;;1.36;100.00;101711.91;5071324;28;20372;-73
2023/05/04 03:00:29;;;;;;;13.45;6.18;;;1.00;99.90;;;1.41;100.00;101720.44;5073661;28;20479;-73
2023/05/04 03:02:55;;;;;;;11.90;6.03;;;1.10;99.90;;;1.38;100.00;101707.25;5072515;28;20032;-73
2023/05/04 03:05:20;;;;;;;11.10;6.15;;;1.10;99.90;;;1.41;100.00;101712.38;5068638;28;20247;-73
2023/05/04 03:07:46;;;;;;;11.23;5.95;;;1.00;99.90;;;1.36;100.00;101714.59;5067593;28;20094;-73
2023/05/04 03:10:12;;;;;;;12.55;6.13;;;1.00;99.90;;;1.29;100.00;101707.03;5073377;28;20039;-73
2023/05/04 03:12:37;;;;;;;9.80;5.75;;;1.00;99.90;;;1.28;100.00;101708.03;5088496;28;20038;-73
2023/05/04 03:15:04;;;;;;;10.35;5.85;;;1.00;99.90;;;1.20;100.00;101697.06;5089746;28;20040;-73
2023/05/04 03:17:30;;;;;;;12.25;6.15;;;0.90;99.90;;;1.26;100.00;101696.53;5067696;28;20036;-73
2023/05/04 03:19:56;;;;;;;9.80;6.20;;;0.90;99.90;;;1.31;100.00;101700.69;5064678;28;20039;-73
2023/05/04 03:22:22;;;;;;;13.43;5.90;;;1.00;99.90;;;1.33;100.00;101688.81;5072334;28;20066;-73
2023/05/04 03:24:47;;;;;;;10.07;5.78;;;0.90;99.90;;;1.29;100.00;101690.91;5071424;28;20029;-73
2023/05/04 03:27:13;;;;;;;10.55;6.28;;;0.90;99.90;;;1.34;100.00;101700.44;5071997;28;20030;-73
2023/05/04 03:29:40;;;;;;;9.38;6.03;;;0.90;99.90;;;1.37;100.00;101697.50;5069554;28;20070;-73
2023/05/04 03:32:06;;;;;;;10.27;5.63;;;0.90;99.90;;;1.29;100.00;101695.44;5071448;28;20083;-73
2023/05/04 03:34:31;;;;;;;12.07;5.82;;;0.90;99.90;;;1.29;100.00;101696.28;5071109;28;20032;-73
2023/05/04 03:37:01;;;;;;;9.75;5.22;;;0.90;99.90;;;1.34;100.00;101689.69;5068521;28;20028;-74
2023/05/04 03:39:27;;;;;;;10.55;5.85;;;1.00;99.90;;;1.41;100.00;101699.75;5070688;28;20051;-73
2023/05/04 03:41:52;;;;;;;11.07;6.00;;;1.00;99.90;;;1.40;100.00;101703.44;5089188;28;20048;-74
2023/05/04 03:44:19;;;;;;;14.27;6.47;;;1.00;99.90;;;1.45;100.00;101695.00;5067448;28;20256;-74
2023/05/04 03:46:44;;;;;;;10.77;6.57;;;1.00;99.90;;;1.46;100.00;101688.63;5071524;28;20101;-73
2023/05/04 03:49:10;;;;;;;15.25;6.82;;;1.00;99.90;;;1.45;100.00;101686.91;5089112;28;20024;-73
2023/05/04 03:51:36;;;;;;;11.95;5.80;;;1.10;99.90;;;1.51;100.00;101689.06;5088515;28;20042;-74
2023/05/04 03:54:02;;;;;;;11.98;6.15;;;1.10;99.90;;;1.57;100.00;101690.41;5088493;28;20054;-74
2023/05/04 03:56:27;;;;;;;14.38;6.28;;;1.20;99.90;;;1.55;100.00;101676.22;5066654;28;20129;-74
2023/05/04 03:58:53;;;;;;;11.68;6.45;;;1.20;99.90;;;1.57;100.00;101696.63;5088791;28;20115;-74
2023/05/04 04:01:23;;;;;;;9.07;5.13;;;1.20;99.90;;;1.57;100.00;101685.00;5066598;28;20032;-74
2023/05/04 04:03:49;;;;;;;16.38;6.53;;;1.20;99.90;;;1.66;100.00;101684.22;5088607;28;20048;-74
2023/05/04 04:06:17;;;;;;;10.80;5.70;;;1.20;99.90;;;1.73;100.00;101681.84;5070665;28;20056;-75
2023/05/04 04:08:42;;;;;;;13.30;6.63;;;1.30;99.90;;;1.85;100.00;101683.47;5088667;28;20036;-74
2023/05/04 04:11:08;;;;;;;13.13;6.65;;;1.40;99.90;;;1.94;100.00;101680.97;5087459;28;20475;-74
2023/05/04 04:13:34;;;;;;;12.35;6.80;;;1.50;99.90;;;2.03;100.00;101673.94;5070510;28;20028;-73
2023/05/04 04:15:59;;;;;;;11.85;6.65;;;1.60;99.90;;;2.15;100.00;101672.81;5087725;28;20036;-74
2023/05/04 04:18:25;;;;;;;14.90;6.85;;;1.70;99.90;;;2.23;100.00;101674.84;5087943;28;20038;-73
2023/05/04 04:20:51;;;;;;;12.40;7.15;;;1.80;99.90;;;2.32;100.00;101665.94;5088561;28;20043;-73
2023/05/04 04:23:18;;;;;;;11.95;6.68;;;1.90;99.90;;;2.53;100.00;101682.03;5070364;28;20043;-74
2023/05/04 04:25:45;;;;;;;14.75;7.22;;;2.00;99.90;;;2.62;100.00;101683.00;5071668;28;20540;-73
2023/05/04 04:28:13;;;;;;;12.10;7.97;;;2.00;99.90;;;2.69;100.00;101681.50;5088682;28;20376;-74
2023/05/04 04:30:38;;;;;;;14.43;6.82;;;2.10;99.90;;;2.67;100.00;101672.69;5062624;28;20028;-74
2023/05/04 04:33:04;;;;;;;12.57;6.47;;;2.10;99.90;;;2.73;100.00;101682.03;5085098;28;20035;-74
2023/05/04 04:35:33;;;;;;;14.18;6.60;;;2.20;99.90;;;2.83;100.00;101679.38;5071353;28;20097;-74
2023/05/04 04:37:59;;;;;;;10.85;6.50;;;2.20;99.90;;;2.92;100.00;101681.22;5088520;28;20043;-74
2023/05/04 04:40:25;;;;;;;14.40;6.90;;;2.30;99.90;;;3.10;100.00;101673.28;5088350;28;20419;-74
2023/05/04 04:42:51;;;;;;;14.07;6.82;;;2.40;99.90;;;3.19;100.00;101663.50;5084238;28;20056;-74
2023/05/04 04:45:19;;;;;;;12.07;6.57;;;2.50;99.90;;;3.27;100.00;101665.44;5088227;28;20051;-74
2023/05/04 04:47:45;;;;;;;17.30;7.07;;;2.60;99.90;;;3.44;100.00;101674.66;5054618;28;20032;-74
2023/05/04 04:50:11;;;;;;;15.93;7.32;;;2.70;99.90;;;3.55;100.00;101679.91;5088120;28;20028;-74
2023/05/04 04:52:37;;;;;;;15.60;6.63;;;2.80;99.90;;;3.62;100.00;101671.22;5088077;28;20157;-74
2023/05/04 04:55:03;;;;;;;15.10;7.00;;;2.90;99.90;;;3.79;100.00;101670.47;5087660;28;20023;-74
2023/05/04 04:57:29;;;;;;;16.95;6.32;;;3.10;99.90;;;3.95;100.00;101672.53;5087133;28;20066;-74
2023/05/04 04:59:56;;;;;;;12.38;6.50;;;3.20;99.90;;;4.11;100.00;101671.91;5087958;28;20074;-74
2023/05/04 05:02:22;;;;;;;15.95;7.13;;;3.30;99.90;;;4.13;100.00;101669.06;5087932;28;20028;-74
2023/05/04 05:04:48;;;;;;;15.90;7.35;;;3.40;99.90;;;4.18;100.00;101656.78;5088033;28;20039;-75
2023/05/04 05:07:14;;;;;;;13.63;7.30;;;3.60;99.90;;;4.43;100.00;101662.50;5086789;28;20038;-74
2023/05/04 05:09:40;;;;;;;15.93;6.93;;;3.70;99.90;;;4.59;100.00;101661.00;5086913;28;20036;-74
2023/05/04 05:12:05;;;;;;;16.67;6.85;;;3.90;99.90;;;4.71;100.00;101653.50;5087813;28;20034;-74
2023/05/04 05:14:31;;;;;;;18.33;7.10;;;4.10;99.90;;;4.92;100.00;101661.31;5054128;28;20444;-74
2023/05/04 05:16:58;;;;;;;15.55;7.10;;;4.30;99.90;;;5.11;100.00;101651.34;5087751;28;20118;-74
2023/05/04 05:19:24;;;;;;;15.98;6.75;;;4.40;99.90;;;5.25;100.00;101658.88;5087782;28;20032;-74
2023/05/04 05:21:51;;;;;;;13.25;7.45;;;4.60;99.90;;;5.43;100.00;101649.91;5069768;28;20044;-74
2023/05/04 05:24:17;;;;;;;17.77;7.03;;;4.70;99.90;;;5.63;100.00;101647.00;5089628;28;20037;-73
2023/05/04 05:26:42;;;;;;;14.45;6.80;;;4.90;99.90;;;5.87;100.00;101643.56;5091535;28;20529;-74
2023/05/04 05:29:08;;;;;;;15.02;7.68;;;5.10;99.90;;;6.12;100.00;101641.88;5092017;28;20047;-73
2023/05/04 05:31:34;;;;;;;14.45;6.75;;;5.30;99.90;;;6.31;100.00;101635.31;5091769;28;20028;-74
2023/05/04 05:34:01;;;;;;;10.52;6.20;;;5.50;99.90;;;6.44;100.00;101615.00;5088226;28;20032;-73
2023/05/04 05:36:26;;;;;;;11.13;6.40;;;5.70;99.90;;;6.79;100.00;101645.63;5086957;28;20037;-74
2023/05/04 05:38:52;;;;;;;14.73;6.88;;;6.00;99.90;;;7.04;100.00;101643.75;5074409;28;20063;-73
2023/05/04 05:41:18;;;;;;;10.23;6.07;;;6.20;99.90;;;7.32;100.00;101632.56;5091841;28;20047;-74
2023/05/04 05:43:44;;;;;;;10.75;6.28;;;6.40;99.90;;;7.56;100.00;101632.69;5080378;28;20039;-74
2023/05/04 05:46:10;;;;;;;11.48;5.53;;;6.60;99.90;;;7.82;100.00;101639.75;5073890;28;20163;-73
2023/05/04 05:48:36;;;;;;;10.40;5.05;;;6.90;99.90;;;7.94;100.00;101632.06;5091862;28;20032;-74
2023/05/04 05:51:03;;;;;;;10.60;5.80;;;7.00;99.90;;;8.10;100.00;101629.31;5090575;28;20079;-74
2023/05/04 05:53:28;;;;;;;10.70;5.57;;;7.20;99.90;;;8.27;100.00;101634.69;5087078;28;20063;-74
2023/05/04 05:55:54;;;;;;;10.23;5.30;;;7.40;99.90;;;8.46;100.00;101631.50;5042265;28;20032;-74
2023/05/04 05:58:20;;;;;;;9.00;5.32;;;7.60;99.90;;;8.63;100.00;101639.59;5084800;28;20095;-74
2023/05/04 06:00:46;;;;;;;12.18;5.82;;;7.80;99.90;;;8.83;100.00;101639.97;5091101;28;20415;-74
2023/05/04 06:03:13;;;;;;;13.02;5.63;;;8.00;99.90;;;9.04;100.00;101630.28;5090137;28;20050;-74
2023/05/04 06:05:40;;;;;;;10.63;4.85;;;8.20;99.90;;;9.05;100.00;101618.38;5090877;28;20032;-75
2023/05/04 06:08:05;;;;;;;13.35;4.70;;;8.50;99.90;;;9.26;98.42;101622.28;5090900;28;20046;-74
2023/05/04 06:10:32;;;;;;;10.35;5.05;;;8.60;99.90;;;9.41;94.92;101617.69;5090150;28;20048;-74
2023/05/04 06:12:58;;;;;;;9.82;4.95;;;8.70;99.90;;;9.60;91.73;101607.31;5090708;28;20425;-75
2023/05/04 06:15:23;;;;;;;11.35;4.55;;;8.90;99.90;;;9.83;90.43;101615.41;5089779;28;20039;-74
2023/05/04 06:17:49;;;;;;;12.63;4.55;;;9.10;99.90;;;10.04;88.39;101617.34;5074671;28;20039;-74
2023/05/04 06:20:15;;;;;;;15.18;5.10;;;9.30;99.90;;;10.26;87.88;101622.03;5089983;28;20043;-76
2023/05/04 06:22:41;;;;;;;13.73;4.88;;;9.50;99.90;;;10.46;83.77;101601.31;5090880;28;20051;-77
2023/05/04 06:25:07;;;;;;;8.95;4.63;;;9.70;99.90;;;10.55;82.17;101601.19;5073453;28;20036;-74
2023/05/04 06:27:33;;;;;;;8.43;4.53;;;9.90;99.90;;;10.75;80.06;101604.97;5090565;28;20044;-75
2023/05/04 06:29:58;;;;;;;12.98;4.57;;;10.10;99.90;;;10.97;78.04;101596.78;5090767;28;20122;-75
2023/05/04 06:32:24;;;;;;;11.32;4.15;;;10.30;99.90;;;11.28;75.56;101602.94;5064589;28;20115;-75
2023/05/04 06:34:54;;;;;;;10.05;4.40;;;10.60;99.90;;;11.57;74.01;101587.38;5086297;28;20044;-75
2023/05/04 06:37:20;;;;;;;9.20;4.13;;;10.80;99.90;;;11.90;72.24;101595.75;5090558;28;20036;-75
2023/05/04 06:39:46;;;;;;;11.40;4.82;;;11.10;99.90;;;11.93;70.57;101575.34;5065514;28;20032;-75
2023/05/04 06:42:12;;;;;;;12.45;4.72;;;11.20;99.90;;;12.09;70.26;101590.59;5090349;28;20378;-75
2023/05/04 06:44:40;;;;;;;9.70;4.43;;;11.50;99.90;;;12.30;70.59;101594.25;5071542;28;20039;-75
2023/05/04 06:47:06;;;;;;;14.77;4.35;;;11.60;99.90;;;12.57;66.02;101584.22;5086660;28;20024;-77
2023/05/04 06:49:33;;;;;;;8.10;3.70;;;11.90;99.90;;;12.28;67.42;101588.97;5090698;28;20075;-74
2023/05/04 06:52:00;;;;;;;9.85;3.78;;;12.10;99.90;;;12.43;69.62;101588.00;5089190;28;20116;-75
2023/05/04 06:54:26;;;;;;;8.90;4.30;;;12.40;99.90;;;12.62;64.93;101589.09;5090399;28;20116;-75
2023/05/04 06:56:53;;;;;;;10.48;4.18;;;12.60;99.90;;;12.44;66.13;101593.25;5066632;28;20039;-75
2023/05/04 06:59:19;;;;;;;10.40;3.88;;;12.60;99.90;;;12.58;66.50;101593.28;5089528;28;20031;-75
2023/05/04 07:01:48;;;;;;;13.38;4.45;;;12.70;99.90;;;12.68;67.54;101603.84;5073382;28;20081;-75
2023/05/04 07:04:22;;;;;;;11.25;3.67;;;12.80;99.90;;;12.61;66.91;101598.34;5088951;28;20039;-74
2023/05/04 07:06:49;;;;;;;9.00;3.83;;;12.80;99.90;;;12.88;63.42;101596.50;5068209;28;20043;-74
2023/05/04 07:09:18;;;;;;;10.75;3.97;;;12.90;99.90;;;13.00;63.24;101582.19;5072930;28;20044;-74
2023/05/04 07:11:43;;;;;;;9.10;3.60;;;13.10;99.90;;;13.12;61.83;101591.44;5055578;28;20044;-76
2023/05/04 07:14:10;;;;;;;10.35;3.63;;;13.20;99.90;;;12.91;62.55;101596.09;5088754;28;20043;-75
2023/05/04 07:16:36;;;;;;;8.73;3.60;;;13.20;99.90;;;13.22;62.84;101594.63;5086084;28;20081;-75
2023/05/04 07:19:03;;;;;;;10.38;3.70;;;13.30;99.90;;;13.36;59.02;101589.97;5072379;28;20036;-75
2023/05/04 07:21:29;;;;;;;7.15;3.45;;;13.40;99.90;;;13.53;58.58;101581.34;5089677;28;20035;-76
2023/05/04 07:23:55;;;;;;;7.10;3.53;;;13.50;99.90;;;13.55;57.39;101579.22;5083004;28;20059;-74
2023/05/04 07:26:21;;;;;;;10.48;3.63;;;13.60;99.90;;;13.64;59.07;101588.03;5067726;28;20403;-75
2023/05/04 07:28:47;;;;;;;7.78;3.08;;;13.70;99.90;;;13.80;58.90;101586.75;5088671;28;20071;-76
2023/05/04 07:31:14;;;;;;;11.40;3.50;;;13.80;99.90;;;14.04;55.82;101576.09;5089615;28;20066;-76
2023/05/04 07:33:40;;;;;;;8.00;3.42;;;14.00;99.90;;;13.90;56.34;101573.41;5089497;28;20785;-76
2023/05/04 07:36:06;;;;;;;9.70;3.58;;;14.20;99.90;;;14.10;56.19;101578.00;5089605;28;20032;-76
2023/05/04 07:38:33;;;;;;;8.45;3.50;;;14.10;99.90;;;14.30;54.20;101563.31;5084941;28;20042;-76
2023/05/04 07:40:59;;;;;;;12.20;3.50;;;14.10;99.80;;;14.41;53.68;101561.78;5089545;28;20041;-76
2023/05/04 07:43:25;;;;;;;10.15;3.60;;;14.30;99.60;;;14.16;54.36;101563.41;5089590;28;20032;-75
2023/05/04 07:45:52;;;;;;;9.93;3.40;;;14.30;99.70;;;14.15;54.79;101564.44;5088477;28;20447;-75
2023/05/04 07:48:18;;;;;;;6.57;3.30;;;14.30;99.50;;;15.01;54.06;101558.63;5074321;28;20028;-76
2023/05/04 07:50:45;;;;;;;8.52;3.40;;;14.50;99.60;;;15.45;51.14;101552.31;5089330;28;20043;-76
2023/05/04 07:53:11;;;;;;;9.80;3.45;;;14.80;97.70;;;15.20;51.34;101539.44;5083156;28;20047;-77
2023/05/04 07:55:37;;;;;;;7.38;3.35;;;15.10;97.50;;;15.08;51.95;101553.09;5088631;28;20036;-76
2023/05/04 07:58:03;;;;;;;8.25;3.30;;;15.00;97.30;;;14.63;50.79;101534.81;5067652;28;20108;-77
2023/05/04 08:00:29;;;;;;;6.43;3.22;;;14.90;95.90;;;14.37;52.08;101553.16;5087618;28;20036;-77
2023/05/04 08:02:54;;;;;;;8.00;3.08;;;14.60;96.40;;;14.18;51.83;101552.19;5089296;28;20042;-77
2023/05/04 08:05:20;;;;;;;10.80;3.58;;;14.50;95.90;;;14.15;53.23;101561.72;5088818;28;20040;-76
2023/05/04 08:07:46;;;;;;;7.88;3.38;;;14.60;97.00;;;14.13;53.13;101558.34;5088420;28;20031;-77
2023/05/04 08:10:11;;;;;;;8.80;3.30;;;14.60;96.70;;;14.19;53.12;101548.38;5088849;28;20047;-77
2023/05/04 08:12:39;;;;;;;10.48;3.50;;;14.60;96.50;;;14.54;52.26;101547.97;5083595;28;20040;-76
2023/05/04 08:15:06;;;;;;;9.50;3.40;;;14.80;96.40;;;14.69;51.60;101550.41;5089044;28;20040;-74
2023/05/04 08:17:33;;;;;;;9.30;3.40;;;15.00;95.60;;;14.90;50.33;101527.22;5085437;28;20500;-74
2023/05/04 08:20:00;;;;;;;10.60;3.90;;;15.20;94.90;;;15.03;52.13;101545.50;5085853;28;20032;-74
2023/05/04 08:22:26;;;;;;;9.43;3.10;;;15.40;95.90;;;15.20;51.77;101526.53;5085303;28;20124;-75
2023/05/04 08:24:52;;;;;;;8.68;3.22;;;15.60;95.60;;;15.19;51.09;101535.03;5088382;28;20135;-76
2023/05/04 08:27:17;;;;;;;8.07;3.28;;;15.70;94.60;;;15.32;51.25;101534.88;5088560;28;20467;-75
2023/05/04 08:29:43;;;;;;;6.30;3.30;;;15.80;94.80;;;15.33;49.81;101528.31;5087450;28;20360;-76
2023/05/04 08:32:09;;;;;;;7.43;3.30;;;16.00;93.30;;;15.63;50.76;101543.22;5081811;28;20040;-75
2023/05/04 08:34:38;;;;;;;10.20;3.42;;;16.10;94.60;;;15.84;49.96;101528.16;5072725;28;20488;-75
2023/05/04 08:37:03;;;;;;;13.35;4.13;;;16.20;93.70;;;15.89;49.15;101511.81;5088581;28;20035;-74
2023/05/04 08:39:29;;;;;;;7.13;3.40;;;16.40;92.70;;;16.25;47.82;101501.81;5088693;28;20035;-74
2023/05/04 08:41:55;;;;;;;8.80;3.00;;;16.60;91.60;;;15.92;46.72;101505.88;5088574;28;20086;-77
2023/05/04 08:44:22;;;;;;;7.55;3.47;;;16.70;90.20;;;16.15;48.83;101512.53;5082370;28;20456;-75
2023/05/04 08:46:52;;;;;;;9.23;3.47;;;16.70;92.20;;;16.48;49.10;101511.22;5084974;28;20036;-75
2023/05/04 08:49:19;;;;;;;9.10;3.20;;;16.90;92.40;;;16.28;46.48;101495.00;5081488;28;20378;-76
2023/05/04 08:51:49;;;;;;;8.48;3.45;;;16.90;90.00;;;16.17;46.04;101496.63;5082876;28;20051;-78
2023/05/04 08:54:16;;;;;;;8.95;3.30;;;16.80;89.10;;;16.54;46.28;101496.50;5088496;28;20522;-75
2023/05/04 08:56:45;;;;;;;8.40;3.30;;;16.80;89.60;;;16.30;47.12;101495.59;5087186;28;20075;-76
2023/05/04 08:59:22;;;;;;;7.07;3.30;;;16.90;90.20;;;16.23;47.47;101492.97;5092032;28;20104;-76
2023/05/04 09:01:54;;;;;;;7.13;3.17;;;16.80;90.20;;;16.49;47.53;101479.84;5069072;28;20035;-76
2023/05/04 09:04:21;;;;;;;7.82;2.92;;;16.90;90.70;;;16.70;45.88;101474.84;5091400;28;20032;-76
2023/05/04 09:06:51;;;;;;;6.75;3.40;;;17.20;88.50;;;16.97;45.32;101486.25;5091752;28;20059;-76
2023/05/04 09:09:17;;;;;;;9.05;3.30;;;17.40;87.20;;;17.09;45.78;101466.97;5055014;28;20020;-75
2023/05/04 09:11:43;;;;;;;4.68;3.00;;;17.50;87.80;;;17.10;44.54;101457.63;5090338;28;20513;-76
2023/05/04 09:14:08;;;;;;;9.90;3.40;;;17.70;85.70;;;16.69;44.27;101464.91;5090989;28;20080;-76
2023/05/04 09:16:38;;;;;;;6.45;2.80;;;17.40;83.80;;;17.07;45.76;101473.81;5092329;28;20038;-77
2023/05/04 09:19:16;;;;;;;7.65;3.38;;;17.50;86.80;;;17.05;44.09;101457.53;5086685;28;20109;-76
2023/05/04 09:21:43;;;;;;;9.18;2.90;;;17.60;84.50;;;17.56;44.81;101476.28;5091632;28;20044;-76
2023/05/04 09:24:09;;;;;;;11.10;3.20;;;17.80;86.20;;;17.57;43.16;101455.88;5091172;28;20039;-75
2023/05/04 09:26:34;;;;;;;8.63;3.03;;;18.00;83.30;;;17.51;42.87;101459.63;5092089;28;20036;-77
2023/05/04 09:29:12;;;;;;;8.30;3.25;;;18.10;81.50;;;17.61;43.38;101472.75;5091595;28;20051;-76
2023/05/04 09:31:57;;;;;;;4.80;2.67;;;18.10;82.40;;;17.58;43.36;101467.72;5091152;28;20035;-76
2023/05/04 09:34:24;;;;;;;11.15;3.20;;;18.10;82.30;;;17.53;41.79;101440.91;5086576;28;20047;-76
2023/05/04 09:37:08;;;;;;;7.25;3.20;;;18.10;79.30;;;17.51;41.75;101446.66;5092088;28;20037;-75
2023/05/04 09:39:36;;;;;;;8.73;3.20;;;18.10;78.90;;;18.02;42.41;101446.00;5069280;28;20040;-76
2023/05/04 09:42:03;;;;;;;7.05;2.85;;;18.50;81.00;;;18.32;41.20;101453.16;5091171;28;20035;-76
2023/05/04 09:44:29;;;;;;;7.53;3.00;;;18.70;78.30;;;18.33;41.10;101451.25;5089731;28;20040;-77
2023/05/04 09:46:57;;;;;;;5.47;2.70;;;18.90;77.80;;;18.72;40.55;101431.97;5091869;28;20040;-77
2023/05/04 09:49:34;;;;;;;7.03;2.65;;;19.10;77.00;;;19.34;41.09;101446.69;5088843;28;20043;-76
2023/05/04 09:52:01;;;;;;;5.55;2.50;;;19.50;78.60;;;19.61;38.47;101426.56;5087908;28;20120;-76
2023/05/04 09:54:37;;;;;;;7.63;2.85;;;20.00;74.10;;;19.06;37.05;101409.00;5091667;28;20032;-77
2023/05/04 09:57:14;;;;;;;6.15;2.67;;;19.90;70.30;;;18.83;36.61;101408.94;5090772;28;20050;-77
2023/05/04 09:59:41;;;;;;;7.13;2.90;;;19.50;70.00;;;19.01;37.50;101409.75;5089536;28;20064;-77
2023/05/04 10:02:11;;;;;;;7.70;2.45;;;19.50;70.50;;;19.73;37.65;101422.81;5071848;28;20131;-75
2023/05/04 10:04:38;;;;;;;5.65;2.60;;;19.90;71.80;;;20.10;36.60;101411.03;5085566;28;20055;-76
2023/05/04 10:07:05;;;;;;;6.80;2.60;;;20.30;70.00;;;19.90;35.97;101387.56;5072957;28;20072;-76
2023/05/04 10:09:34;;;;;;;8.90;2.90;;;20.60;67.80;;;19.94;35.53;101401.75;5090374;28;20288;-77
2023/05/04 10:12:05;;;;;;;5.13;2.80;;;20.70;66.20;;;20.36;33.35;101384.41;5073741;28;20478;-76